sensor_id;sensor_type;location;lat;lon;timestamp;P1;durP1;ratioP1;P2;durP2;ratioP2
52186;SDS011;38161;53.020;6.598;2023-08-20T00:00:32;167.60;;;156.85;;
52186;SDS011;38161;53.020;6.598;2023-08-20T00:03:02;172.07;;;158.63;;
52186;SDS011;38161;53.020;6.598;2023-08-20T00:05:34;168.07;;;157.40;;
52186;SDS011;38161;53.020;6.598;2023-08-20T00:08:00;161.10;;;151.07;;
52186;SDS011;38161;53.020;6.598;2023-08-20T00:10:25;168.00;;;157.73;;
52186;SDS011;38161;53.020;6.598;2023-08-20T00:12:51;166.93;;;155.23;;
52186;SDS011;38161;53.020;6.598;2023-08-20T00:15:17;156.68;;;147.10;;
52186;SDS011;38161;53.020;6.598;2023-08-20T00:17:45;168.77;;;158.13;;
52186;SDS011;38161;53.020;6.598;2023-08-20T00:20:13;166.75;;;156.45;;
52186;SDS011;38161;53.020;6.598;2023-08-20T00:22:40;169.23;;;158.93;;
52186;SDS011;38161;53.020;6.598;2023-08-20T00:25:11;166.55;;;156.50;;
52186;SDS011;38161;53.020;6.598;2023-08-20T00:27:38;165.50;;;155.30;;
52186;SDS011;38161;53.020;6.598;2023-08-20T00:30:05;168.55;;;158.23;;
52186;SDS011;38161;53.020;6.598;2023-08-20T00:32:32;162.07;;;152.05;;
52186;SDS011;38161;53.020;6.598;2023-08-20T00:34:58;156.27;;;146.75;;
52186;SDS011;38161;53.020;6.598;2023-08-20T00:37:24;157.82;;;148.50;;
52186;SDS011;38161;53.020;6.598;2023-08-20T00:39:50;154.98;;;145.57;;
52186;SDS011;38161;53.020;6.598;2023-08-20T00:42:16;163.57;;;153.10;;
52186;SDS011;38161;53.020;6.598;2023-08-20T00:44:42;158.48;;;148.85;;
52186;SDS011;38161;53.020;6.598;2023-08-20T00:47:12;165.40;;;155.45;;
52186;SDS011;38161;53.020;6.598;2023-08-20T00:49:39;164.88;;;154.73;;
52186;SDS011;38161;53.020;6.598;2023-08-20T00:52:07;164.85;;;154.82;;
52186;SDS011;38161;53.020;6.598;2023-08-20T00:54:34;152.52;;;143.43;;
52186;SDS011;38161;53.020;6.598;2023-08-20T00:57:01;153.27;;;144.18;;
52186;SDS011;38161;53.020;6.598;2023-08-20T00:59:28;169.02;;;157.65;;
52186;SDS011;38161;53.020;6.598;2023-08-20T01:01:57;154.93;;;145.82;;
52186;SDS011;38161;53.020;6.598;2023-08-20T01:04:23;141.80;;;133.73;;
52186;SDS011;38161;53.020;6.598;2023-08-20T01:12:20;142.55;;;133.73;;
52186;SDS011;38161;53.020;6.598;2023-08-20T01:14:49;159.40;;;149.15;;
52186;SDS011;38161;53.020;6.598;2023-08-20T01:17:15;150.32;;;141.52;;
52186;SDS011;38161;53.020;6.598;2023-08-20T01:19:43;169.40;;;158.98;;
52186;SDS011;38161;53.020;6.598;2023-08-20T01:30:43;145.55;;;136.80;;
52186;SDS011;38161;53.020;6.598;2023-08-20T01:33:10;152.93;;;143.15;;
52186;SDS011;38161;53.020;6.598;2023-08-20T01:35:37;151.05;;;142.38;;
52186;SDS011;38161;53.020;6.598;2023-08-20T01:40:30;139.20;;;130.63;;
52186;SDS011;38161;53.020;6.598;2023-08-20T01:42:56;142.35;;;133.48;;
52186;SDS011;38161;53.020;6.598;2023-08-20T01:45:22;146.00;;;137.02;;
52186;SDS011;38161;53.020;6.598;2023-08-20T01:47:49;143.50;;;134.90;;
52186;SDS011;38161;53.020;6.598;2023-08-20T01:50:15;141.77;;;133.65;;
52186;SDS011;38161;53.020;6.598;2023-08-20T01:52:41;144.77;;;136.32;;
52186;SDS011;38161;53.020;6.598;2023-08-20T01:55:07;146.15;;;137.77;;
52186;SDS011;38161;53.020;6.598;2023-08-20T01:57:33;150.43;;;141.75;;
52186;SDS011;38161;53.020;6.598;2023-08-20T01:59:59;160.73;;;151.20;;
52186;SDS011;38161;53.020;6.598;2023-08-20T02:02:25;167.95;;;157.57;;
52186;SDS011;38161;53.020;6.598;2023-08-20T02:04:51;149.70;;;141.02;;
52186;SDS011;38161;53.020;6.598;2023-08-20T02:07:17;142.30;;;134.30;;
52186;SDS011;38161;53.020;6.598;2023-08-20T02:09:43;156.90;;;145.23;;
52186;SDS011;38161;53.020;6.598;2023-08-20T02:12:09;148.82;;;140.15;;
52186;SDS011;38161;53.020;6.598;2023-08-20T02:14:35;151.60;;;142.30;;
52186;SDS011;38161;53.020;6.598;2023-08-20T02:17:04;151.05;;;141.50;;
52186;SDS011;38161;53.020;6.598;2023-08-20T02:19:30;140.88;;;132.85;;
52186;SDS011;38161;53.020;6.598;2023-08-20T02:21:56;152.63;;;143.73;;
52186;SDS011;38161;53.020;6.598;2023-08-20T02:24:22;149.63;;;141.07;;
52186;SDS011;38161;53.020;6.598;2023-08-20T02:26:47;153.45;;;144.25;;
52186;SDS011;38161;53.020;6.598;2023-08-20T02:29:13;153.23;;;144.30;;
52186;SDS011;38161;53.020;6.598;2023-08-20T02:31:39;155.63;;;146.27;;
52186;SDS011;38161;53.020;6.598;2023-08-20T02:34:05;144.05;;;135.25;;
52186;SDS011;38161;53.020;6.598;2023-08-20T02:36:31;148.40;;;139.70;;
52186;SDS011;38161;53.020;6.598;2023-08-20T02:38:57;138.75;;;130.85;;
52186;SDS011;38161;53.020;6.598;2023-08-20T02:41:23;147.05;;;138.02;;
52186;SDS011;38161;53.020;6.598;2023-08-20T02:43:49;135.07;;;127.35;;
52186;SDS011;38161;53.020;6.598;2023-08-20T02:46:15;130.52;;;123.15;;
52186;SDS011;38161;53.020;6.598;2023-08-20T02:48:41;142.70;;;134.48;;
52186;SDS011;38161;53.020;6.598;2023-08-20T02:51:07;139.38;;;131.20;;
52186;SDS011;38161;53.020;6.598;2023-08-20T02:53:32;156.10;;;146.75;;
52186;SDS011;38161;53.020;6.598;2023-08-20T02:55:58;148.32;;;139.65;;
52186;SDS011;38161;53.020;6.598;2023-08-20T02:58:24;140.63;;;132.52;;
52186;SDS011;38161;53.020;6.598;2023-08-20T03:00:51;127.95;;;120.55;;
52186;SDS011;38161;53.020;6.598;2023-08-20T03:03:18;133.82;;;126.10;;
52186;SDS011;38161;53.020;6.598;2023-08-20T03:05:44;127.82;;;120.47;;
52186;SDS011;38161;53.020;6.598;2023-08-20T03:08:09;120.20;;;113.32;;
52186;SDS011;38161;53.020;6.598;2023-08-20T03:10:35;128.65;;;120.93;;
52186;SDS011;38161;53.020;6.598;2023-08-20T03:13:02;130.98;;;123.40;;
52186;SDS011;38161;53.020;6.598;2023-08-20T03:21:00;128.98;;;121.18;;
52186;SDS011;38161;53.020;6.598;2023-08-20T03:23:26;127.07;;;119.40;;
52186;SDS011;38161;53.020;6.598;2023-08-20T03:25:52;120.63;;;113.22;;
52186;SDS011;38161;53.020;6.598;2023-08-20T03:28:18;121.47;;;114.47;;
52186;SDS011;38161;53.020;6.598;2023-08-20T03:30:44;127.63;;;119.85;;
52186;SDS011;38161;53.020;6.598;2023-08-20T03:33:10;120.78;;;113.75;;
52186;SDS011;38161;53.020;6.598;2023-08-20T03:35:36;120.78;;;113.95;;
52186;SDS011;38161;53.020;6.598;2023-08-20T03:38:02;124.90;;;118.05;;
52186;SDS011;38161;53.020;6.598;2023-08-20T03:40:28;115.88;;;109.00;;
52186;SDS011;38161;53.020;6.598;2023-08-20T03:42:54;126.53;;;119.13;;
52186;SDS011;38161;53.020;6.598;2023-08-20T03:45:20;129.23;;;121.72;;
52186;SDS011;38161;53.020;6.598;2023-08-20T03:47:46;132.05;;;123.70;;
52186;SDS011;38161;53.020;6.598;2023-08-20T03:50:12;131.23;;;123.25;;
52186;SDS011;38161;53.020;6.598;2023-08-20T03:52:38;114.55;;;108.32;;
52186;SDS011;38161;53.020;6.598;2023-08-20T03:55:04;130.63;;;123.15;;
52186;SDS011;38161;53.020;6.598;2023-08-20T03:57:31;121.07;;;114.20;;
52186;SDS011;38161;53.020;6.598;2023-08-20T03:59:57;128.93;;;121.45;;
52186;SDS011;38161;53.020;6.598;2023-08-20T04:02:23;123.75;;;116.85;;
52186;SDS011;38161;53.020;6.598;2023-08-20T04:04:49;119.28;;;112.78;;
52186;SDS011;38161;53.020;6.598;2023-08-20T04:07:15;136.90;;;129.02;;
52186;SDS011;38161;53.020;6.598;2023-08-20T04:09:41;134.82;;;124.32;;
52186;SDS011;38161;53.020;6.598;2023-08-20T04:12:07;129.90;;;122.57;;
52186;SDS011;38161;53.020;6.598;2023-08-20T04:14:34;137.77;;;129.82;;
52186;SDS011;38161;53.020;6.598;2023-08-20T04:17:00;108.60;;;102.75;;
52186;SDS011;38161;53.020;6.598;2023-08-20T04:19:26;129.55;;;122.20;;
52186;SDS011;38161;53.020;6.598;2023-08-20T04:21:51;139.90;;;131.65;;
52186;SDS011;38161;53.020;6.598;2023-08-20T04:24:18;135.13;;;126.85;;
52186;SDS011;38161;53.020;6.598;2023-08-20T04:26:43;137.55;;;129.45;;
52186;SDS011;38161;53.020;6.598;2023-08-20T04:29:10;133.77;;;126.28;;
52186;SDS011;38161;53.020;6.598;2023-08-20T04:31:36;120.90;;;113.97;;
52186;SDS011;38161;53.020;6.598;2023-08-20T04:34:02;132.25;;;124.43;;
52186;SDS011;38161;53.020;6.598;2023-08-20T04:36:28;120.25;;;113.40;;
52186;SDS011;38161;53.020;6.598;2023-08-20T04:38:54;135.48;;;127.22;;
52186;SDS011;38161;53.020;6.598;2023-08-20T04:41:20;135.90;;;127.68;;
52186;SDS011;38161;53.020;6.598;2023-08-20T04:43:46;125.95;;;118.22;;
52186;SDS011;38161;53.020;6.598;2023-08-20T04:46:12;126.20;;;118.50;;
52186;SDS011;38161;53.020;6.598;2023-08-20T04:48:38;123.38;;;116.55;;
52186;SDS011;38161;53.020;6.598;2023-08-20T04:51:05;128.23;;;120.70;;
52186;SDS011;38161;53.020;6.598;2023-08-20T04:53:31;126.20;;;118.88;;
52186;SDS011;38161;53.020;6.598;2023-08-20T04:55:57;114.78;;;108.03;;
52186;SDS011;38161;53.020;6.598;2023-08-20T04:58:23;124.60;;;117.53;;
52186;SDS011;38161;53.020;6.598;2023-08-20T05:00:49;130.63;;;122.65;;
52186;SDS011;38161;53.020;6.598;2023-08-20T05:03:15;144.65;;;135.95;;
52186;SDS011;38161;53.020;6.598;2023-08-20T05:05:41;130.52;;;122.78;;
52186;SDS011;38161;53.020;6.598;2023-08-20T05:08:07;123.45;;;116.45;;
52186;SDS011;38161;53.020;6.598;2023-08-20T05:10:35;135.10;;;126.93;;
52186;SDS011;38161;53.020;6.598;2023-08-20T05:13:02;124.35;;;117.03;;
52186;SDS011;38161;53.020;6.598;2023-08-20T05:15:28;118.47;;;111.88;;
52186;SDS011;38161;53.020;6.598;2023-08-20T05:17:54;124.38;;;116.95;;
52186;SDS011;38161;53.020;6.598;2023-08-20T05:20:20;114.82;;;108.10;;
52186;SDS011;38161;53.020;6.598;2023-08-20T05:22:45;126.47;;;119.10;;
52186;SDS011;38161;53.020;6.598;2023-08-20T05:25:11;110.43;;;104.03;;
52186;SDS011;38161;53.020;6.598;2023-08-20T05:27:37;121.32;;;114.28;;
52186;SDS011;38161;53.020;6.598;2023-08-20T05:30:03;110.32;;;103.75;;
52186;SDS011;38161;53.020;6.598;2023-08-20T05:32:29;116.93;;;109.97;;
52186;SDS011;38161;53.020;6.598;2023-08-20T05:34:55;121.22;;;114.05;;
52186;SDS011;38161;53.020;6.598;2023-08-20T05:37:21;121.70;;;114.78;;
52186;SDS011;38161;53.020;6.598;2023-08-20T05:39:46;119.53;;;112.45;;
52186;SDS011;38161;53.020;6.598;2023-08-20T05:42:12;122.63;;;114.97;;
52186;SDS011;38161;53.020;6.598;2023-08-20T05:44:38;134.15;;;126.32;;
52186;SDS011;38161;53.020;6.598;2023-08-20T05:47:04;135.38;;;127.25;;
52186;SDS011;38161;53.020;6.598;2023-08-20T05:49:30;121.05;;;113.70;;
52186;SDS011;38161;53.020;6.598;2023-08-20T05:51:56;132.32;;;124.32;;
52186;SDS011;38161;53.020;6.598;2023-08-20T05:54:22;124.00;;;116.00;;
52186;SDS011;38161;53.020;6.598;2023-08-20T05:56:47;132.13;;;124.00;;
52186;SDS011;38161;53.020;6.598;2023-08-20T05:59:13;132.20;;;123.78;;
52186;SDS011;38161;53.020;6.598;2023-08-20T06:01:39;143.10;;;133.98;;
52186;SDS011;38161;53.020;6.598;2023-08-20T06:04:05;137.82;;;129.15;;
52186;SDS011;38161;53.020;6.598;2023-08-20T06:06:31;143.27;;;134.38;;
52186;SDS011;38161;53.020;6.598;2023-08-20T06:08:57;145.35;;;136.02;;
52186;SDS011;38161;53.020;6.598;2023-08-20T06:11:22;170.73;;;159.85;;
52186;SDS011;38161;53.020;6.598;2023-08-20T06:13:48;163.27;;;153.00;;
52186;SDS011;38161;53.020;6.598;2023-08-20T06:16:14;144.00;;;134.90;;
52186;SDS011;38161;53.020;6.598;2023-08-20T06:21:40;144.50;;;135.85;;
52186;SDS011;38161;53.020;6.598;2023-08-20T06:24:02;137.07;;;128.45;;
52186;SDS011;38161;53.020;6.598;2023-08-20T06:26:28;169.23;;;158.65;;
52186;SDS011;38161;53.020;6.598;2023-08-20T06:28:54;140.43;;;131.77;;
52186;SDS011;38161;53.020;6.598;2023-08-20T06:31:20;140.48;;;131.50;;
52186;SDS011;38161;53.020;6.598;2023-08-20T06:33:46;136.52;;;127.63;;
52186;SDS011;38161;53.020;6.598;2023-08-20T06:36:12;151.05;;;141.63;;
52186;SDS011;38161;53.020;6.598;2023-08-20T06:38:38;150.88;;;141.52;;
52186;SDS011;38161;53.020;6.598;2023-08-20T06:41:04;154.77;;;145.07;;
52186;SDS011;38161;53.020;6.598;2023-08-20T06:43:29;156.07;;;146.43;;
52186;SDS011;38161;53.020;6.598;2023-08-20T06:45:55;148.68;;;139.18;;
52186;SDS011;38161;53.020;6.598;2023-08-20T06:48:21;164.07;;;153.15;;
52186;SDS011;38161;53.020;6.598;2023-08-20T06:50:49;153.75;;;143.93;;
52186;SDS011;38161;53.020;6.598;2023-08-20T06:53:15;152.48;;;143.00;;
52186;SDS011;38161;53.020;6.598;2023-08-20T06:55:41;152.73;;;142.77;;
52186;SDS011;38161;53.020;6.598;2023-08-20T06:58:07;155.68;;;145.55;;
52186;SDS011;38161;53.020;6.598;2023-08-20T07:00:32;191.95;;;178.32;;
52186;SDS011;38161;53.020;6.598;2023-08-20T07:02:58;198.80;;;185.35;;
52186;SDS011;38161;53.020;6.598;2023-08-20T07:05:24;174.93;;;162.23;;
52186;SDS011;38161;53.020;6.598;2023-08-20T07:07:50;181.30;;;168.85;;
52186;SDS011;38161;53.020;6.598;2023-08-20T07:10:16;204.25;;;189.13;;
52186;SDS011;38161;53.020;6.598;2023-08-20T07:12:41;193.45;;;179.70;;
52186;SDS011;38161;53.020;6.598;2023-08-20T07:15:07;174.05;;;162.95;;
52186;SDS011;38161;53.020;6.598;2023-08-20T07:19:59;157.43;;;147.13;;
52186;SDS011;38161;53.020;6.598;2023-08-20T07:22:25;164.20;;;153.18;;
52186;SDS011;38161;53.020;6.598;2023-08-20T07:24:51;188.52;;;174.23;;
52186;SDS011;38161;53.020;6.598;2023-08-20T07:27:16;169.77;;;156.55;;
52186;SDS011;38161;53.020;6.598;2023-08-20T07:29:42;169.55;;;157.85;;
52186;SDS011;38161;53.020;6.598;2023-08-20T07:32:10;194.45;;;180.45;;
52186;SDS011;38161;53.020;6.598;2023-08-20T07:34:36;179.43;;;160.98;;
52186;SDS011;38161;53.020;6.598;2023-08-20T07:37:02;188.02;;;173.40;;
52186;SDS011;38161;53.020;6.598;2023-08-20T07:39:30;196.93;;;182.48;;
52186;SDS011;38161;53.020;6.598;2023-08-20T07:41:55;193.85;;;180.40;;
52186;SDS011;38161;53.020;6.598;2023-08-20T07:44:21;186.30;;;172.25;;
52186;SDS011;38161;53.020;6.598;2023-08-20T07:46:47;192.90;;;177.73;;
52186;SDS011;38161;53.020;6.598;2023-08-20T07:49:12;207.50;;;189.40;;
52186;SDS011;38161;53.020;6.598;2023-08-20T07:51:38;213.57;;;196.00;;
52186;SDS011;38161;53.020;6.598;2023-08-20T07:54:04;196.55;;;181.90;;
52186;SDS011;38161;53.020;6.598;2023-08-20T07:56:30;225.60;;;180.57;;
52186;SDS011;38161;53.020;6.598;2023-08-20T07:58:56;208.23;;;189.70;;
52186;SDS011;38161;53.020;6.598;2023-08-20T08:01:22;215.32;;;195.65;;
52186;SDS011;38161;53.020;6.598;2023-08-20T08:03:47;224.95;;;202.68;;
52186;SDS011;38161;53.020;6.598;2023-08-20T08:06:13;201.65;;;183.57;;
52186;SDS011;38161;53.020;6.598;2023-08-20T08:08:47;213.25;;;192.65;;
52186;SDS011;38161;53.020;6.598;2023-08-20T08:11:13;228.95;;;207.80;;
52186;SDS011;38161;53.020;6.598;2023-08-20T08:13:39;222.18;;;199.63;;
52186;SDS011;38161;53.020;6.598;2023-08-20T08:16:05;227.50;;;203.32;;
52186;SDS011;38161;53.020;6.598;2023-08-20T08:20:57;200.55;;;184.88;;
52186;SDS011;38161;53.020;6.598;2023-08-20T08:23:23;224.55;;;200.45;;
52186;SDS011;38161;53.020;6.598;2023-08-20T08:25:49;231.80;;;206.25;;
52186;SDS011;38161;53.020;6.598;2023-08-20T08:28:14;215.10;;;197.52;;
52186;SDS011;38161;53.020;6.598;2023-08-20T08:30:40;236.70;;;214.57;;
52186;SDS011;38161;53.020;6.598;2023-08-20T08:33:06;237.60;;;213.77;;
52186;SDS011;38161;53.020;6.598;2023-08-20T08:35:32;238.90;;;216.73;;
52186;SDS011;38161;53.020;6.598;2023-08-20T08:37:58;234.00;;;214.00;;
52186;SDS011;38161;53.020;6.598;2023-08-20T08:40:27;305.38;;;224.57;;
52186;SDS011;38161;53.020;6.598;2023-08-20T08:42:54;232.15;;;207.15;;
52186;SDS011;38161;53.020;6.598;2023-08-20T08:45:20;257.27;;;232.20;;
52186;SDS011;38161;53.020;6.598;2023-08-20T08:50:13;211.50;;;192.73;;
52186;SDS011;38161;53.020;6.598;2023-08-20T08:55:06;252.88;;;224.90;;
52186;SDS011;38161;53.020;6.598;2023-08-20T08:57:34;252.35;;;226.48;;
52186;SDS011;38161;53.020;6.598;2023-08-20T09:00:01;247.70;;;224.07;;
52186;SDS011;38161;53.020;6.598;2023-08-20T09:02:28;292.33;;;242.90;;
52186;SDS011;38161;53.020;6.598;2023-08-20T09:04:53;277.45;;;240.50;;
52186;SDS011;38161;53.020;6.598;2023-08-20T09:07:20;272.70;;;243.38;;
52186;SDS011;38161;53.020;6.598;2023-08-20T09:09:46;281.67;;;250.48;;
52186;SDS011;38161;53.020;6.598;2023-08-20T09:12:13;304.45;;;245.63;;
52186;SDS011;38161;53.020;6.598;2023-08-20T09:14:46;280.67;;;241.07;;
52186;SDS011;38161;53.020;6.598;2023-08-20T09:17:13;272.73;;;243.98;;
52186;SDS011;38161;53.020;6.598;2023-08-20T09:22:07;249.82;;;223.63;;
52186;SDS011;38161;53.020;6.598;2023-08-20T09:24:34;257.55;;;231.68;;
52186;SDS011;38161;53.020;6.598;2023-08-20T09:27:04;259.33;;;231.85;;
52186;SDS011;38161;53.020;6.598;2023-08-20T09:29:50;284.75;;;254.93;;
52186;SDS011;38161;53.020;6.598;2023-08-20T09:32:18;273.77;;;246.00;;
52186;SDS011;38161;53.020;6.598;2023-08-20T09:34:49;288.08;;;254.88;;
52186;SDS011;38161;53.020;6.598;2023-08-20T09:37:21;286.75;;;255.98;;
52186;SDS011;38161;53.020;6.598;2023-08-20T09:39:48;267.02;;;238.57;;
52186;SDS011;38161;53.020;6.598;2023-08-20T09:42:14;261.48;;;232.07;;
52186;SDS011;38161;53.020;6.598;2023-08-20T09:44:42;348.15;;;263.25;;
52186;SDS011;38161;53.020;6.598;2023-08-20T09:47:14;320.67;;;237.23;;
52186;SDS011;38161;53.020;6.598;2023-08-20T09:49:43;289.40;;;239.65;;
52186;SDS011;38161;53.020;6.598;2023-08-20T09:52:16;445.23;;;268.70;;
52186;SDS011;38161;53.020;6.598;2023-08-20T09:54:52;460.73;;;271.23;;
52186;SDS011;38161;53.020;6.598;2023-08-20T09:57:38;321.05;;;261.85;;
52186;SDS011;38161;53.020;6.598;2023-08-20T10:00:06;405.70;;;263.92;;
52186;SDS011;38161;53.020;6.598;2023-08-20T10:02:36;397.20;;;285.67;;
52186;SDS011;38161;53.020;6.598;2023-08-20T10:05:06;469.58;;;288.45;;
52186;SDS011;38161;53.020;6.598;2023-08-20T10:07:34;370.02;;;264.85;;
52186;SDS011;38161;53.020;6.598;2023-08-20T10:10:01;396.23;;;288.13;;
52186;SDS011;38161;53.020;6.598;2023-08-20T10:12:29;482.63;;;295.88;;
52186;SDS011;38161;53.020;6.598;2023-08-20T10:14:56;339.52;;;253.65;;
52186;SDS011;38161;53.020;6.598;2023-08-20T10:17:25;340.88;;;264.42;;
52186;SDS011;38161;53.020;6.598;2023-08-20T10:19:55;539.13;;;289.67;;
52186;SDS011;38161;53.020;6.598;2023-08-20T10:22:25;440.48;;;292.88;;
52186;SDS011;38161;53.020;6.598;2023-08-20T10:25:07;461.02;;;300.52;;
52186;SDS011;38161;53.020;6.598;2023-08-20T10:27:41;400.17;;;285.48;;
52186;SDS011;38161;53.020;6.598;2023-08-20T10:30:16;445.67;;;285.48;;
52186;SDS011;38161;53.020;6.598;2023-08-20T10:32:46;313.55;;;261.58;;
52186;SDS011;38161;53.020;6.598;2023-08-20T10:35:16;486.67;;;280.20;;
52186;SDS011;38161;53.020;6.598;2023-08-20T10:38:07;429.00;;;252.07;;
52186;SDS011;38161;53.020;6.598;2023-08-20T10:40:46;322.33;;;257.52;;
52186;SDS011;38161;53.020;6.598;2023-08-20T10:48:48;333.75;;;239.43;;
52186;SDS011;38161;53.020;6.598;2023-08-20T10:54:05;468.35;;;257.42;;
52186;SDS011;38161;53.020;6.598;2023-08-20T10:57:14;349.73;;;239.80;;
52186;SDS011;38161;53.020;6.598;2023-08-20T10:59:27;384.85;;;266.70;;
52186;SDS011;38161;53.020;6.598;2023-08-20T11:01:57;579.97;;;272.70;;
52186;SDS011;38161;53.020;6.598;2023-08-20T11:04:30;362.60;;;250.88;;
52186;SDS011;38161;53.020;6.598;2023-08-20T11:07:00;477.27;;;276.63;;
52186;SDS011;38161;53.020;6.598;2023-08-20T11:09:27;510.55;;;290.75;;
52186;SDS011;38161;53.020;6.598;2023-08-20T11:11:53;526.58;;;265.60;;
52186;SDS011;38161;53.020;6.598;2023-08-20T11:14:20;351.85;;;241.73;;
52186;SDS011;38161;53.020;6.598;2023-08-20T11:16:47;314.30;;;224.13;;
52186;SDS011;38161;53.020;6.598;2023-08-20T11:19:14;411.77;;;234.23;;
52186;SDS011;38161;53.020;6.598;2023-08-20T11:21:45;280.15;;;197.35;;
52186;SDS011;38161;53.020;6.598;2023-08-20T11:24:13;274.42;;;193.77;;
52186;SDS011;38161;53.020;6.598;2023-08-20T11:26:39;363.60;;;254.05;;
52186;SDS011;38161;53.020;6.598;2023-08-20T11:29:06;359.40;;;237.70;;
52186;SDS011;38161;53.020;6.598;2023-08-20T11:31:33;390.10;;;222.27;;
52186;SDS011;38161;53.020;6.598;2023-08-20T11:34:03;394.38;;;246.30;;
52186;SDS011;38161;53.020;6.598;2023-08-20T11:36:29;357.05;;;224.50;;
52186;SDS011;38161;53.020;6.598;2023-08-20T11:41:21;405.85;;;231.13;;
52186;SDS011;38161;53.020;6.598;2023-08-20T11:43:48;251.80;;;202.82;;
52186;SDS011;38161;53.020;6.598;2023-08-20T11:46:15;432.27;;;230.93;;
52186;SDS011;38161;53.020;6.598;2023-08-20T11:49:05;427.38;;;239.23;;
52186;SDS011;38161;53.020;6.598;2023-08-20T11:51:38;342.15;;;219.02;;
52186;SDS011;38161;53.020;6.598;2023-08-20T11:54:06;277.80;;;217.13;;
52186;SDS011;38161;53.020;6.598;2023-08-20T11:56:33;439.63;;;224.98;;
52186;SDS011;38161;53.020;6.598;2023-08-20T11:59:00;352.90;;;203.15;;
52186;SDS011;38161;53.020;6.598;2023-08-20T12:01:30;318.20;;;198.48;;
52186;SDS011;38161;53.020;6.598;2023-08-20T12:04:03;368.30;;;215.93;;
52186;SDS011;38161;53.020;6.598;2023-08-20T12:06:31;281.17;;;205.30;;
52186;SDS011;38161;53.020;6.598;2023-08-20T12:08:57;356.08;;;221.75;;
52186;SDS011;38161;53.020;6.598;2023-08-20T12:11:24;344.98;;;214.23;;
52186;SDS011;38161;53.020;6.598;2023-08-20T12:13:53;503.30;;;225.57;;
52186;SDS011;38161;53.020;6.598;2023-08-20T12:16:23;330.67;;;198.73;;
52186;SDS011;38161;53.020;6.598;2023-08-20T12:18:50;373.27;;;211.15;;
52186;SDS011;38161;53.020;6.598;2023-08-20T12:21:17;323.90;;;210.98;;
52186;SDS011;38161;53.020;6.598;2023-08-20T12:23:43;232.60;;;184.65;;
52186;SDS011;38161;53.020;6.598;2023-08-20T12:28:34;299.38;;;208.43;;
52186;SDS011;38161;53.020;6.598;2023-08-20T12:33:26;314.13;;;200.57;;
52186;SDS011;38161;53.020;6.598;2023-08-20T12:35:55;309.30;;;210.68;;
52186;SDS011;38161;53.020;6.598;2023-08-20T12:38:22;335.73;;;193.90;;
52186;SDS011;38161;53.020;6.598;2023-08-20T12:40:47;268.48;;;178.70;;
52186;SDS011;38161;53.020;6.598;2023-08-20T12:45:39;259.75;;;190.48;;
52186;SDS011;38161;53.020;6.598;2023-08-20T12:50:31;311.90;;;177.90;;
52186;SDS011;38161;53.020;6.598;2023-08-20T12:52:56;264.85;;;173.25;;
52186;SDS011;38161;53.020;6.598;2023-08-20T12:57:52;254.02;;;170.88;;
52186;SDS011;38161;53.020;6.598;2023-08-20T13:00:22;409.55;;;196.70;;
52186;SDS011;38161;53.020;6.598;2023-08-20T13:02:52;200.68;;;180.13;;
52186;SDS011;38161;53.020;6.598;2023-08-20T13:05:24;291.83;;;179.98;;
52186;SDS011;38161;53.020;6.598;2023-08-20T13:07:51;206.70;;;170.63;;
52186;SDS011;38161;53.020;6.598;2023-08-20T13:10:18;274.85;;;159.45;;
52186;SDS011;38161;53.020;6.598;2023-08-20T13:12:49;171.77;;;154.18;;
52186;SDS011;38161;53.020;6.598;2023-08-20T13:15:19;272.20;;;156.93;;
52186;SDS011;38161;53.020;6.598;2023-08-20T13:17:47;364.98;;;233.68;;
52186;SDS011;38161;53.020;6.598;2023-08-20T13:20:14;363.30;;;245.73;;
52186;SDS011;38161;53.020;6.598;2023-08-20T13:22:46;181.98;;;164.25;;
52186;SDS011;38161;53.020;6.598;2023-08-20T13:25:16;199.10;;;164.10;;
52186;SDS011;38161;53.020;6.598;2023-08-20T13:27:46;338.42;;;204.48;;
52186;SDS011;38161;53.020;6.598;2023-08-20T13:32:38;221.48;;;166.70;;
52186;SDS011;38161;53.020;6.598;2023-08-20T13:35:04;183.25;;;153.07;;
52186;SDS011;38161;53.020;6.598;2023-08-20T13:37:31;207.02;;;146.30;;
52186;SDS011;38161;53.020;6.598;2023-08-20T13:39:58;187.93;;;153.75;;
52186;SDS011;38161;53.020;6.598;2023-08-20T13:42:24;188.90;;;164.80;;
52186;SDS011;38161;53.020;6.598;2023-08-20T13:44:50;201.20;;;172.13;;
52186;SDS011;38161;53.020;6.598;2023-08-20T13:47:16;181.27;;;159.80;;
52186;SDS011;38161;53.020;6.598;2023-08-20T13:49:42;292.27;;;171.57;;
52186;SDS011;38161;53.020;6.598;2023-08-20T13:54:35;257.08;;;185.65;;
52186;SDS011;38161;53.020;6.598;2023-08-20T13:57:02;272.98;;;179.20;;
52186;SDS011;38161;53.020;6.598;2023-08-20T13:59:28;201.13;;;164.82;;
52186;SDS011;38161;53.020;6.598;2023-08-20T14:01:55;229.73;;;167.88;;
52186;SDS011;38161;53.020;6.598;2023-08-20T14:06:46;193.60;;;160.40;;
52186;SDS011;38161;53.020;6.598;2023-08-20T14:09:13;193.98;;;159.68;;
52186;SDS011;38161;53.020;6.598;2023-08-20T14:14:05;177.65;;;147.45;;
52186;SDS011;38161;53.020;6.598;2023-08-20T14:16:31;196.10;;;140.68;;
52186;SDS011;38161;53.020;6.598;2023-08-20T14:21:22;130.02;;;117.40;;
52186;SDS011;38161;53.020;6.598;2023-08-20T14:23:48;135.82;;;122.53;;
52186;SDS011;38161;53.020;6.598;2023-08-20T14:28:41;153.80;;;134.25;;
52186;SDS011;38161;53.020;6.598;2023-08-20T14:31:09;161.52;;;141.90;;
52186;SDS011;38161;53.020;6.598;2023-08-20T14:36:01;164.88;;;126.18;;
52186;SDS011;38161;53.020;6.598;2023-08-20T14:40:53;203.18;;;137.05;;
52186;SDS011;38161;53.020;6.598;2023-08-20T14:43:19;131.90;;;118.13;;
52186;SDS011;38161;53.020;6.598;2023-08-20T14:48:11;198.38;;;121.75;;
52186;SDS011;38161;53.020;6.598;2023-08-20T14:53:02;116.68;;;107.93;;
52186;SDS011;38161;53.020;6.598;2023-08-20T14:55:28;181.07;;;111.22;;
52186;SDS011;38161;53.020;6.598;2023-08-20T15:00:22;180.88;;;134.40;;
52186;SDS011;38161;53.020;6.598;2023-08-20T15:02:49;197.07;;;124.15;;
52186;SDS011;38161;53.020;6.598;2023-08-20T15:07:42;125.57;;;113.63;;
52186;SDS011;38161;53.020;6.598;2023-08-20T15:10:08;165.15;;;128.27;;
52186;SDS011;38161;53.020;6.598;2023-08-20T15:15:01;138.23;;;126.32;;
52186;SDS011;38161;53.020;6.598;2023-08-20T15:17:28;134.95;;;116.03;;
52186;SDS011;38161;53.020;6.598;2023-08-20T15:19:55;144.65;;;129.70;;
52186;SDS011;38161;53.020;6.598;2023-08-20T15:24:46;228.63;;;141.18;;
52186;SDS011;38161;53.020;6.598;2023-08-20T15:27:13;168.73;;;140.75;;
52186;SDS011;38161;53.020;6.598;2023-08-20T15:32:04;143.30;;;131.50;;